createdAt,value
2023-05-01T00:00:24.579Z,13.6930
2023-05-01T00:01:25.678Z,13.6365
2023-05-01T00:02:26.797Z,13.5279
2023-05-01T00:03:27.878Z,13.3714
2023-05-01T00:04:28.763Z,13.1973
2023-05-01T00:05:29.785Z,13.1477
2023-05-01T00:06:30.926Z,13.0770
2023-05-01T00:07:31.929Z,12.9897
2023-05-01T00:08:32.909Z,12.9171
2023-05-01T00:09:33.945Z,12.9035
2023-05-01T00:10:34.957Z,12.9109
2023-05-01T00:11:36.063Z,12.9269
2023-05-01T00:12:37.155Z,12.9246
2023-05-01T00:13:38.081Z,12.8843
2023-05-01T00:14:39.108Z,12.8382
2023-05-01T00:15:40.159Z,12.7973
2023-05-01T00:16:41.258Z,12.7600
2023-05-01T00:17:42.320Z,12.7783
2023-05-01T00:18:43.259Z,12.8089
2023-05-01T00:19:44.310Z,12.8102
2023-05-01T00:20:45.322Z,12.8002
2023-05-01T00:21:46.459Z,12.8992
2023-05-01T00:22:47.423Z,12.8949
2023-05-01T00:23:48.471Z,12.9155
2023-05-01T00:24:49.482Z,12.9839
2023-05-01T00:25:50.558Z,13.2515
2023-05-01T00:26:51.597Z,13.3573
2023-05-01T00:27:52.651Z,13.1100
2023-05-01T00:28:53.936Z,13.0637
2023-05-01T00:29:54.943Z,12.9938
2023-05-01T00:30:55.732Z,12.9289
2023-05-01T00:31:56.838Z,13.0144
2023-05-01T00:32:57.860Z,13.0224
2023-05-01T00:33:58.913Z,13.0249
2023-05-01T00:34:59.880Z,13.1364
2023-05-01T00:36:00.961Z,13.2098
2023-05-01T00:37:01.957Z,13.2492
2023-05-01T00:38:03.088Z,13.3529
2023-05-01T00:39:04.061Z,13.2440
2023-05-01T00:40:05.100Z,13.1630
2023-05-01T00:41:06.138Z,13.2448
2023-05-01T00:42:07.207Z,13.3951
2023-05-01T00:43:08.237Z,13.5355
2023-05-01T00:44:09.287Z,13.4504
2023-05-01T00:45:10.260Z,13.3536
2023-05-01T00:46:11.376Z,13.3465
2023-05-01T00:47:12.339Z,13.5132
2023-05-01T00:48:13.435Z,13.7231
2023-05-01T00:49:14.437Z,13.7586
2023-05-01T00:50:15.489Z,13.8114
2023-05-01T00:51:16.506Z,13.8193
2023-05-01T00:52:17.565Z,13.8926
2023-05-01T00:53:18.577Z,13.9649
2023-05-01T00:54:19.656Z,13.9276
2023-05-01T00:55:20.645Z,13.8033
2023-05-01T00:56:21.656Z,13.8100
2023-05-01T00:57:22.672Z,13.9282
2023-05-01T00:58:23.750Z,13.9857
2023-05-01T00:59:24.793Z,13.9668
2023-05-01T01:00:25.849Z,13.9082
2023-05-01T01:01:26.973Z,13.7254
2023-05-01T01:02:27.922Z,13.5831
2023-05-01T01:03:29.006Z,13.5187
2023-05-01T01:04:30.074Z,13.4812
2023-05-01T01:05:31.022Z,13.4610
2023-05-01T01:06:32.058Z,13.5428
2023-05-01T01:07:33.094Z,13.7054
2023-05-01T01:08:34.161Z,13.7222
2023-05-01T01:09:35.334Z,13.5899
2023-05-01T01:10:36.161Z,13.4299
2023-05-01T01:11:37.221Z,13.5037
2023-05-01T01:12:38.252Z,13.5661
2023-05-01T01:13:39.301Z,13.3888
2023-05-01T01:14:40.301Z,13.3304
2023-05-01T01:15:41.320Z,13.3757
2023-05-01T01:16:42.354Z,13.3751
2023-05-01T01:17:43.417Z,13.3026
2023-05-01T01:18:44.438Z,13.1886
2023-05-01T01:19:45.490Z,13.0158
2023-05-01T01:20:46.507Z,13.0130
2023-05-01T01:21:47.586Z,13.0263
2023-05-01T01:22:48.514Z,13.0136
2023-05-01T01:23:49.584Z,12.9942
2023-05-01T01:24:50.593Z,12.8577
2023-05-01T01:25:51.652Z,12.8370
2023-05-01T01:26:52.645Z,12.8973
2023-05-01T01:27:53.692Z,12.9026
2023-05-01T01:28:54.765Z,12.8417
2023-05-01T01:29:56.200Z,12.8216
2023-05-01T01:30:56.908Z,12.8218
2023-05-01T01:31:57.825Z,12.7676
2023-05-01T01:32:58.885Z,12.7752
2023-05-01T01:33:59.945Z,12.6185
2023-05-01T01:35:00.934Z,12.5354
2023-05-01T01:36:01.970Z,12.4927
2023-05-01T01:37:02.999Z,12.3787
2023-05-01T01:38:04.016Z,12.3821
2023-05-01T01:39:05.091Z,12.3812
2023-05-01T01:40:06.171Z,12.3489
2023-05-01T01:41:07.174Z,12.1990
2023-05-01T01:42:08.210Z,12.0833
2023-05-01T01:43:09.183Z,12.0433
2023-05-01T01:44:10.274Z,12.2009
2023-05-01T01:45:11.273Z,12.4555
2023-05-01T01:46:12.382Z,12.4816
2023-05-01T01:47:13.356Z,12.3325
2023-05-01T01:48:14.378Z,12.2864
2023-05-01T01:49:15.382Z,12.3050
2023-05-01T01:50:16.537Z,12.2330
2023-05-01T01:51:17.496Z,12.0340
2023-05-01T01:52:18.551Z,11.9610
2023-05-01T01:53:19.590Z,11.7901
2023-05-01T01:54:20.591Z,11.5258
2023-05-01T01:55:21.611Z,11.4245
2023-05-01T01:56:22.658Z,11.5046
2023-05-01T01:57:23.704Z,11.4389
2023-05-01T01:58:24.747Z,11.4739
2023-05-01T01:59:25.742Z,11.5207
2023-05-01T02:00:26.801Z,11.4397
2023-05-01T02:01:27.824Z,11.4233
2023-05-01T02:02:28.980Z,11.3515
2023-05-01T02:03:29.971Z,11.2821
2023-05-01T02:04:30.949Z,11.1288
2023-05-01T02:05:31.939Z,11.0310
2023-05-01T02:06:33.040Z,10.8571
2023-05-01T02:07:34.021Z,10.7442
2023-05-01T02:08:35.120Z,10.6908
2023-05-01T02:09:36.136Z,10.6663
2023-05-01T02:10:37.155Z,10.6029
2023-05-01T02:11:38.194Z,10.7036
2023-05-01T02:12:39.212Z,10.7908
2023-05-01T02:13:40.297Z,10.6970
2023-05-01T02:14:41.345Z,10.6289
2023-05-01T02:15:42.347Z,10.6894
2023-05-01T02:16:43.393Z,10.8230
2023-05-01T02:17:44.407Z,10.8917
2023-05-01T02:18:45.473Z,10.8973
2023-05-01T02:19:46.517Z,10.8471
2023-05-01T02:20:47.542Z,10.7543
2023-05-01T02:21:48.533Z,10.6875
2023-05-01T02:22:49.573Z,10.8628
2023-05-01T02:23:50.623Z,11.0439
2023-05-01T02:24:51.673Z,11.2070
2023-05-01T02:25:52.655Z,11.3790
2023-05-01T02:26:53.693Z,11.4898
2023-05-01T02:27:54.723Z,11.5583
2023-05-01T02:28:55.791Z,11.4400
2023-05-01T02:29:57.150Z,11.3882
2023-05-01T02:30:57.853Z,11.1941
2023-05-01T02:31:59.056Z,11.1507
2023-05-01T02:32:59.958Z,11.2097
2023-05-01T02:34:00.955Z,11.3136
2023-05-01T02:35:02.001Z,11.2354
2023-05-01T02:36:02.977Z,11.2403
2023-05-01T02:37:04.010Z,11.2972
2023-05-01T02:38:05.036Z,11.2963
2023-05-01T02:39:06.136Z,11.2553
2023-05-01T02:40:07.165Z,11.2600
2023-05-01T02:41:08.175Z,11.3774
2023-05-01T02:42:09.233Z,11.6574
2023-05-01T02:43:10.255Z,11.7395
2023-05-01T02:44:11.281Z,11.6474
2023-05-01T02:45:12.314Z,11.5689
2023-05-01T02:46:13.341Z,11.6312
2023-05-01T02:47:14.407Z,11.5401
2023-05-01T02:48:15.381Z,11.6279
2023-05-01T02:49:16.479Z,11.6809
2023-05-01T02:50:17.516Z,11.5546
2023-05-01T02:51:18.504Z,11.5184
2023-05-01T02:52:19.543Z,11.3957
2023-05-01T02:53:20.598Z,11.2533
2023-05-01T02:54:21.633Z,11.1683
2023-05-01T02:55:22.679Z,11.1289
2023-05-01T02:56:23.679Z,11.1576
2023-05-01T02:57:24.743Z,11.1085
2023-05-01T02:58:25.776Z,11.1716
2023-05-01T02:59:26.826Z,11.2012
2023-05-01T03:00:27.869Z,11.1727
2023-05-01T03:01:28.905Z,11.2505
2023-05-01T03:02:29.878Z,11.2808
2023-05-01T03:03:30.942Z,11.3264
2023-05-01T03:04:32.038Z,11.2964
2023-05-01T03:05:33.024Z,11.1364
2023-05-01T03:06:34.073Z,10.9937
2023-05-01T03:07:35.102Z,10.8465
2023-05-01T03:08:36.103Z,10.7542
2023-05-01T03:09:37.158Z,10.7966
2023-05-01T03:10:38.217Z,10.8731
2023-05-01T03:11:39.203Z,10.9306
2023-05-01T03:12:40.257Z,10.8973
2023-05-01T03:13:41.256Z,10.8325
2023-05-01T03:14:42.333Z,10.9698
2023-05-01T03:15:43.338Z,11.0106
2023-05-01T03:16:44.433Z,11.0289
2023-05-01T03:17:45.408Z,11.1564
2023-05-01T03:18:46.441Z,11.0375
2023-05-01T03:19:47.457Z,10.9434
2023-05-01T03:20:48.529Z,10.8511
2023-05-01T03:21:49.519Z,10.8125
2023-05-01T03:22:50.568Z,10.7601
2023-05-01T03:23:51.593Z,10.9147
2023-05-01T03:24:52.668Z,11.0427
2023-05-01T03:25:53.698Z,11.0555
2023-05-01T03:26:54.737Z,11.0550
2023-05-01T03:27:55.713Z,11.0758
2023-05-01T03:28:56.762Z,10.9083
2023-05-01T03:29:58.060Z,10.7620
2023-05-01T03:30:58.876Z,10.6632
2023-05-01T03:31:59.940Z,10.7131
2023-05-01T03:33:00.975Z,10.8528
2023-05-01T03:34:01.918Z,10.8506
2023-05-01T03:35:03.113Z,10.7410
2023-05-01T03:36:04.044Z,10.6390
2023-05-01T03:37:05.061Z,10.6032
2023-05-01T03:38:06.110Z,10.5516
2023-05-01T03:39:07.136Z,10.5972
2023-05-01T03:40:08.184Z,10.6171
2023-05-01T03:41:09.211Z,10.5758
2023-05-01T03:42:10.210Z,10.6812
2023-05-01T03:43:11.273Z,10.8478
2023-05-01T03:44:12.251Z,11.2027
2023-05-01T03:45:13.339Z,11.4145
2023-05-01T03:46:14.421Z,11.2825
2023-05-01T03:47:15.388Z,11.2666
2023-05-01T03:48:16.397Z,11.3113
2023-05-01T03:49:17.469Z,11.3047
2023-05-01T03:50:18.508Z,11.2104
2023-05-01T03:51:19.533Z,11.2868
2023-05-01T03:52:20.508Z,11.3733
2023-05-01T03:53:21.570Z,11.1712
2023-05-01T03:54:22.613Z,11.0982
2023-05-01T03:55:23.675Z,11.1172
2023-05-01T03:56:24.653Z,11.1684
2023-05-01T03:57:25.753Z,11.1619
2023-05-01T03:58:26.721Z,11.0692
2023-05-01T03:59:27.827Z,11.1362
2023-05-01T04:00:28.812Z,11.1988
2023-05-01T04:01:29.873Z,11.2114
2023-05-01T04:02:30.973Z,11.2173
2023-05-01T04:03:31.974Z,11.1982
2023-05-01T04:04:33.049Z,11.0615
2023-05-01T04:05:33.992Z,10.9272
2023-05-01T04:06:35.081Z,10.8771
2023-05-01T04:07:36.056Z,10.8358
2023-05-01T04:08:37.054Z,10.8223
2023-05-01T04:09:38.123Z,10.9170
2023-05-01T04:10:39.163Z,10.9099
2023-05-01T04:11:40.215Z,10.8135
2023-05-01T04:12:41.194Z,10.6771
2023-05-01T04:13:42.322Z,10.6029
2023-05-01T04:14:43.280Z,10.5060
2023-05-01T04:15:44.393Z,10.5191
2023-05-01T04:16:45.359Z,10.4526
2023-05-01T04:17:46.402Z,10.4855
2023-05-01T04:18:47.412Z,10.4562
2023-05-01T04:19:48.464Z,10.3187
2023-05-01T04:20:49.510Z,10.2487
2023-05-01T04:21:50.553Z,10.2131
2023-05-01T04:22:51.518Z,10.2132
2023-05-01T04:23:52.570Z,10.2021
2023-05-01T04:24:53.604Z,10.1746
2023-05-01T04:25:54.729Z,10.3030
2023-05-01T04:26:55.710Z,10.4726
2023-05-01T04:27:56.752Z,10.5548
2023-05-01T04:28:57.757Z,10.6943
2023-05-01T04:29:59.040Z,10.7625
2023-05-01T04:30:59.840Z,10.7061
2023-05-01T04:32:00.984Z,10.5295
2023-05-01T04:33:02.008Z,10.4540
2023-05-01T04:34:02.944Z,10.4486
2023-05-01T04:35:04.319Z,10.4366
2023-05-01T04:36:05.003Z,10.4610
2023-05-01T04:37:06.032Z,10.4193
2023-05-01T04:38:07.089Z,10.4350
2023-05-01T04:39:08.070Z,10.5661
2023-05-01T04:40:11.262Z,10.6375
2023-05-01T04:41:10.148Z,10.5277
2023-05-01T04:42:11.233Z,10.5562
2023-05-01T04:43:12.230Z,10.4586
2023-05-01T04:44:13.258Z,10.4537
2023-05-01T04:45:14.273Z,10.4023
2023-05-01T04:46:15.331Z,10.3743
2023-05-01T04:47:16.367Z,10.4960
2023-05-01T04:48:17.439Z,10.5363
2023-05-01T04:49:18.389Z,10.6135
2023-05-01T04:50:19.455Z,10.5141
2023-05-01T04:51:20.457Z,10.3957
2023-05-01T04:52:21.582Z,10.3915
2023-05-01T04:53:22.602Z,10.5083
2023-05-01T04:54:23.588Z,10.4314
2023-05-01T04:55:24.599Z,10.4506
2023-05-01T04:56:25.662Z,10.4874
2023-05-01T04:57:26.687Z,10.6018
2023-05-01T04:58:27.710Z,10.7637
2023-05-01T04:59:28.752Z,10.6800
2023-05-01T05:00:29.768Z,10.6040
2023-05-01T05:01:30.903Z,10.6171
2023-05-01T05:02:32.128Z,10.7224
2023-05-01T05:03:33.032Z,10.7262
2023-05-01T05:04:34.030Z,10.6257
2023-05-01T05:05:35.008Z,10.7732
2023-05-01T05:06:36.075Z,10.9241
2023-05-01T05:07:37.066Z,10.9110
2023-05-01T05:08:38.130Z,10.9432
2023-05-01T05:09:39.155Z,10.9749
2023-05-01T05:10:40.154Z,10.8111
2023-05-01T05:11:41.217Z,10.7225
2023-05-01T05:12:42.242Z,10.9151
2023-05-01T05:13:43.349Z,11.0617
2023-05-01T05:14:44.350Z,11.0800
2023-05-01T05:15:45.374Z,10.9632
2023-05-01T05:16:46.401Z,10.8582
2023-05-01T05:17:47.463Z,10.8210
2023-05-01T05:18:48.478Z,10.8655
2023-05-01T05:19:49.532Z,10.9611
2023-05-01T05:20:50.523Z,11.0143
2023-05-01T05:21:51.536Z,11.0704
2023-05-01T05:22:52.550Z,11.2153
2023-05-01T05:23:53.655Z,11.2004
2023-05-01T05:24:54.667Z,11.1322
2023-05-01T05:25:55.713Z,10.9678
2023-05-01T05:26:56.730Z,10.9010
2023-05-01T05:27:57.750Z,10.9379
2023-05-01T05:28:58.750Z,10.9497
2023-05-01T05:29:59.858Z,10.9477
2023-05-01T05:31:00.875Z,11.0409
2023-05-01T05:32:01.992Z,11.1102
2023-05-01T05:33:03.025Z,11.2584
2023-05-01T05:34:03.953Z,11.3602
2023-05-01T05:35:04.951Z,11.4401
2023-05-01T05:36:06.053Z,11.5082
2023-05-01T05:37:07.075Z,11.4416
2023-05-01T05:38:08.092Z,11.2155
2023-05-01T05:39:09.116Z,11.1119
2023-05-01T05:40:10.177Z,11.0570
2023-05-01T05:41:11.210Z,11.0342
2023-05-01T05:42:12.248Z,11.0690
2023-05-01T05:43:13.237Z,11.2616
2023-05-01T05:44:14.280Z,11.3421
2023-05-01T05:45:15.282Z,11.3749
2023-05-01T05:46:16.360Z,11.2575
2023-05-01T05:47:17.395Z,11.2483
2023-05-01T05:48:18.405Z,11.1721
2023-05-01T05:49:19.432Z,11.2821
2023-05-01T05:50:20.476Z,11.4154
2023-05-01T05:51:21.523Z,11.3689
2023-05-01T05:52:22.577Z,11.2366
2023-05-01T05:53:25.706Z,11.0901
2023-05-01T05:54:24.637Z,11.0697
2023-05-01T05:55:25.605Z,10.9974
2023-05-01T05:56:26.699Z,11.0295
2023-05-01T05:57:27.697Z,10.9768
2023-05-01T05:58:28.743Z,10.9863
2023-05-01T05:59:29.757Z,11.0681
2023-05-01T06:00:30.892Z,11.1338
2023-05-01T06:01:31.867Z,11.1886
2023-05-01T06:02:33.035Z,11.3076
2023-05-01T06:03:34.100Z,11.2566
2023-05-01T06:04:34.938Z,11.1552
2023-05-01T06:05:35.976Z,11.1807
2023-05-01T06:06:37.124Z,11.2820
2023-05-01T06:07:38.054Z,11.1909
2023-05-01T06:08:39.136Z,11.1922
2023-05-01T06:09:40.178Z,11.2664
2023-05-01T06:10:41.259Z,11.3485
2023-05-01T06:11:42.302Z,11.3719
2023-05-01T06:12:50.005Z,11.4057
2023-05-01T06:13:44.391Z,11.4698
2023-05-01T06:14:45.370Z,11.3585
2023-05-01T06:15:46.466Z,11.4006
2023-05-01T06:16:47.439Z,11.4122
2023-05-01T06:17:48.612Z,11.5294
2023-05-01T06:18:49.538Z,11.5217
2023-05-01T06:19:50.521Z,11.6193
2023-05-01T06:20:51.533Z,11.7204
2023-05-01T06:21:52.598Z,11.7667
2023-05-01T06:22:53.664Z,11.8711
2023-05-01T06:23:54.725Z,11.8075
2023-05-01T06:24:55.697Z,11.8539
2023-05-01T06:25:56.735Z,11.9452
2023-05-01T06:26:58.681Z,12.0638
2023-05-01T06:27:58.854Z,11.8248
2023-05-01T06:28:59.920Z,11.8074
2023-05-01T06:30:00.941Z,11.8876
2023-05-01T06:31:01.815Z,11.9359
2023-05-01T06:32:02.899Z,11.8176
2023-05-01T06:33:03.913Z,11.6065
2023-05-01T06:34:04.951Z,11.5002
2023-05-01T06:35:05.921Z,11.5174
2023-05-01T06:36:06.973Z,11.4794
2023-05-01T06:37:08.024Z,11.6223
2023-05-01T06:38:09.092Z,11.7279
2023-05-01T06:39:10.117Z,11.8072
2023-05-01T06:40:11.135Z,11.8666
2023-05-01T06:41:12.160Z,11.8012
2023-05-01T06:42:13.174Z,11.8401
2023-05-01T06:43:14.248Z,11.9515
2023-05-01T06:44:15.291Z,12.0146
2023-05-01T06:45:16.312Z,11.9512
2023-05-01T06:46:17.388Z,12.0511
2023-05-01T06:47:18.320Z,12.1268
2023-05-01T06:48:19.370Z,12.0313
2023-05-01T06:49:20.411Z,11.8963
2023-05-01T06:50:21.491Z,11.8882
2023-05-01T06:51:22.491Z,11.8862
2023-05-01T06:52:23.537Z,11.7341
2023-05-01T06:53:24.558Z,11.7181
2023-05-01T06:54:25.704Z,11.7352
2023-05-01T06:55:26.671Z,11.8249
2023-05-01T06:56:27.669Z,11.9946
2023-05-01T06:57:28.692Z,12.2030
2023-05-01T06:58:29.753Z,12.1752
2023-05-01T06:59:30.792Z,12.0198
2023-05-01T07:00:31.837Z,11.9295
2023-05-01T07:01:35.322Z,11.9708
2023-05-01T07:02:33.943Z,11.9661
2023-05-01T07:03:35.013Z,11.8395
2023-05-01T07:04:35.976Z,11.8860
2023-05-01T07:05:37.008Z,12.1685
2023-05-01T07:06:38.154Z,12.3273
2023-05-01T07:07:47.280Z,12.3435
2023-05-01T07:08:40.082Z,12.3186
2023-05-01T07:09:41.166Z,12.2074
2023-05-01T07:10:42.496Z,12.3436
2023-05-01T07:11:43.234Z,12.6004
2023-05-01T07:12:44.198Z,12.7255
2023-05-01T07:13:45.260Z,12.5023
2023-05-01T07:14:46.338Z,12.2382
2023-05-01T07:15:47.352Z,12.1081
2023-05-01T07:16:48.490Z,12.0455
2023-05-01T07:17:49.449Z,12.0119
2023-05-01T07:18:50.466Z,12.0245
2023-05-01T07:19:51.495Z,12.0452
2023-05-01T07:20:52.540Z,11.9699
2023-05-01T07:21:53.553Z,11.9610
2023-05-01T07:22:54.587Z,12.0524
2023-05-01T07:23:55.784Z,12.0357
2023-05-01T07:24:56.720Z,11.9999
2023-05-01T07:25:57.713Z,11.8449
2023-05-01T07:26:58.722Z,11.7151
2023-05-01T07:27:59.757Z,11.7895
2023-05-01T07:29:00.796Z,11.7936
2023-05-01T07:30:01.870Z,11.8282
2023-05-01T07:31:02.937Z,11.9498
2023-05-01T07:32:04.088Z,12.1350
2023-05-01T07:33:04.963Z,12.2298
2023-05-01T07:34:05.934Z,12.2800
2023-05-01T07:35:07.009Z,12.1305
2023-05-01T07:36:08.139Z,11.9818
2023-05-01T07:37:09.290Z,12.0320
2023-05-01T07:38:10.076Z,12.0163
2023-05-01T07:39:11.142Z,12.0048
2023-05-01T07:40:12.221Z,12.1859
2023-05-01T07:41:13.213Z,12.3372
2023-05-01T07:42:14.272Z,12.2598
2023-05-01T07:43:15.262Z,12.2214
2023-05-01T07:44:16.304Z,12.2778
2023-05-01T07:45:17.316Z,12.2860
2023-05-01T07:46:18.403Z,12.3448
2023-05-01T07:47:19.468Z,12.5900
2023-05-01T07:48:20.437Z,12.7378
2023-05-01T07:49:21.578Z,12.4738
2023-05-01T07:50:22.483Z,12.3948
2023-05-01T07:51:23.570Z,12.3035
2023-05-01T07:52:24.588Z,12.3305
2023-05-01T07:53:25.619Z,12.2457
2023-05-01T07:54:26.634Z,12.2475
2023-05-01T07:55:27.699Z,12.3003
2023-05-01T07:56:28.738Z,12.4365
2023-05-01T07:57:29.771Z,12.5894
2023-05-01T07:58:30.758Z,12.6460
2023-05-01T07:59:31.821Z,12.6304
2023-05-01T08:00:32.815Z,12.5145
2023-05-01T08:01:33.932Z,12.5873
2023-05-01T08:02:34.978Z,12.7512
2023-05-01T08:03:36.003Z,12.7725
2023-05-01T08:04:37.023Z,12.8563
2023-05-01T08:05:38.148Z,12.9240
2023-05-01T08:06:39.189Z,12.7158
2023-05-01T08:07:40.127Z,12.6288
2023-05-01T08:08:41.149Z,12.6107
2023-05-01T08:09:42.333Z,12.6193
2023-05-01T08:10:43.173Z,12.6054
2023-05-01T08:11:44.209Z,12.6579
2023-05-01T08:12:45.297Z,12.7355
2023-05-01T08:13:46.367Z,12.7856
2023-05-01T08:14:47.309Z,12.8341
2023-05-01T08:15:48.493Z,12.8296
2023-05-01T08:16:49.520Z,12.8638
2023-05-01T08:17:50.678Z,12.9406
2023-05-01T08:18:51.631Z,12.8837
2023-05-01T08:19:52.654Z,12.8179
2023-05-01T08:20:53.639Z,12.8730
2023-05-01T08:21:54.657Z,12.9682
2023-05-01T08:22:55.734Z,12.9643
2023-05-01T08:23:56.773Z,12.7746
2023-05-01T08:24:57.831Z,12.7462
2023-05-01T08:25:58.841Z,12.8011
2023-05-01T08:26:59.876Z,12.7357
2023-05-01T08:28:00.935Z,12.7548
2023-05-01T08:29:02.025Z,12.7621
2023-05-01T08:30:03.006Z,12.6826
2023-05-01T08:31:04.067Z,12.6376
2023-05-01T08:32:04.951Z,12.6193
2023-05-01T08:33:06.183Z,12.7290
2023-05-01T08:34:07.241Z,12.7829
2023-05-01T08:35:08.157Z,12.7409
2023-05-01T08:36:09.199Z,12.7085
2023-05-01T08:37:10.316Z,12.6638
2023-05-01T08:38:11.385Z,12.6332
2023-05-01T08:39:12.436Z,12.5915
2023-05-01T08:40:13.401Z,12.6203
2023-05-01T08:41:14.425Z,12.6451
2023-05-01T08:42:15.460Z,12.7237
2023-05-01T08:43:16.512Z,12.7472
2023-05-01T08:44:17.582Z,12.6733
2023-05-01T08:45:18.499Z,12.6722
2023-05-01T08:46:19.592Z,12.6616
2023-05-01T08:47:20.672Z,12.7465
2023-05-01T08:48:21.674Z,12.8170
2023-05-01T08:49:22.673Z,12.8778
2023-05-01T08:50:23.721Z,13.0394
2023-05-01T08:51:24.714Z,13.1491
2023-05-01T08:52:25.751Z,13.0620
2023-05-01T08:53:26.826Z,13.0106
2023-05-01T08:54:27.870Z,12.9159
2023-05-01T08:55:28.909Z,12.9629
2023-05-01T08:56:29.986Z,12.9800
2023-05-01T08:57:30.915Z,12.7558
2023-05-01T08:58:32.125Z,12.6738
2023-05-01T08:59:33.038Z,12.7196
2023-05-01T09:00:34.041Z,12.8110
2023-05-01T09:01:35.170Z,12.8801
2023-05-01T09:02:36.219Z,12.8557
2023-05-01T09:03:37.260Z,12.8185
2023-05-01T09:04:38.271Z,12.9119
2023-05-01T09:05:39.312Z,12.9421
2023-05-01T09:06:40.388Z,12.8820
2023-05-01T09:07:41.346Z,13.0278
2023-05-01T09:08:42.446Z,13.0010
2023-05-01T09:09:43.513Z,12.8256
2023-05-01T09:10:44.484Z,12.7976
2023-05-01T09:11:45.572Z,12.6493
2023-05-01T09:12:46.550Z,12.7315
2023-05-01T09:13:47.610Z,12.9237
2023-05-01T09:14:48.747Z,13.0107
2023-05-01T09:15:49.676Z,13.1045
2023-05-01T09:16:50.813Z,12.9073
2023-05-01T09:17:51.758Z,12.9188
2023-05-01T09:18:52.768Z,12.8683
2023-05-01T09:19:53.834Z,12.8570
2023-05-01T09:20:54.809Z,13.0271
2023-05-01T09:21:55.867Z,13.0729
2023-05-01T09:22:56.878Z,12.9039
2023-05-01T09:23:57.930Z,12.8548
2023-05-01T09:24:59.028Z,12.9520
2023-05-01T09:26:00.036Z,13.0034
2023-05-01T09:27:01.107Z,12.9585
2023-05-01T09:28:02.053Z,12.9650
2023-05-01T09:29:03.203Z,12.9315
2023-05-01T09:30:04.187Z,12.9938
2023-05-01T09:31:05.150Z,13.0489
2023-05-01T09:32:06.206Z,13.0807
2023-05-01T09:33:07.285Z,13.1735
2023-05-01T09:34:08.299Z,13.2883
2023-05-01T09:35:09.356Z,13.3295
2023-05-01T09:36:10.290Z,13.3915
2023-05-01T09:37:11.385Z,13.3101
2023-05-01T09:38:12.372Z,13.0994
2023-05-01T09:39:13.497Z,13.2059
2023-05-01T09:40:14.568Z,13.2351
2023-05-01T09:41:15.491Z,13.1970
2023-05-01T09:42:16.568Z,13.2128
2023-05-01T09:43:17.556Z,13.2153
2023-05-01T09:44:18.629Z,13.3096
2023-05-01T09:45:19.727Z,13.4092
2023-05-01T09:46:20.708Z,13.4899
2023-05-01T09:47:21.772Z,13.6966
2023-05-01T09:48:22.713Z,13.8478
2023-05-01T09:49:23.784Z,13.8704
2023-05-01T09:50:24.856Z,13.6930
2023-05-01T09:51:25.812Z,13.4538
2023-05-01T09:52:26.815Z,13.3709
2023-05-01T09:53:27.987Z,13.3755
2023-05-01T09:54:28.934Z,13.5024
2023-05-01T09:55:30.032Z,13.6020
2023-05-01T09:56:31.067Z,13.6780
2023-05-01T09:57:32.032Z,13.6351
2023-05-01T09:58:33.056Z,13.6830
2023-05-01T09:59:34.150Z,13.8176
2023-05-01T10:00:35.174Z,13.9385
2023-05-01T10:01:36.248Z,13.8024
2023-05-01T10:02:37.244Z,13.7592
2023-05-01T10:03:38.626Z,13.6870
2023-05-01T10:04:39.295Z,13.7570
2023-05-01T10:05:40.374Z,13.9105
2023-05-01T10:06:41.474Z,14.1291
2023-05-01T10:07:42.505Z,14.1773
2023-05-01T10:08:43.417Z,14.0776
2023-05-01T10:09:44.543Z,13.9409
2023-05-01T10:10:45.564Z,13.7616
2023-05-01T10:11:46.534Z,13.8078
2023-05-01T10:12:47.627Z,13.7779
2023-05-01T10:13:48.602Z,13.5465
2023-05-01T10:14:49.721Z,13.4668
2023-05-01T10:15:50.836Z,13.4999
2023-05-01T10:16:51.794Z,13.6741
2023-05-01T10:17:52.818Z,13.6836
2023-05-01T10:18:53.775Z,13.6472
2023-05-01T10:19:55.227Z,13.6889
2023-05-01T10:20:55.909Z,13.8348
2023-05-01T10:21:56.943Z,13.8868
2023-05-01T10:22:57.984Z,13.9044
2023-05-01T10:23:59.011Z,13.8494
2023-05-01T10:25:00.047Z,13.9109
2023-05-01T10:26:02.508Z,14.0252
2023-05-01T10:27:02.108Z,14.0429
2023-05-01T10:28:03.071Z,13.8971
2023-05-01T10:29:04.122Z,13.9207
2023-05-01T10:30:05.300Z,14.0469
2023-05-01T10:31:06.261Z,14.0998
2023-05-01T10:32:07.219Z,14.1200
2023-05-01T10:33:08.368Z,14.0099
2023-05-01T10:34:09.287Z,13.8682
2023-05-01T10:35:10.390Z,13.9370
2023-05-01T10:36:11.432Z,14.1310
2023-05-01T10:37:12.455Z,14.1869
2023-05-01T10:38:13.426Z,14.1322
2023-05-01T10:39:14.508Z,14.2468
2023-05-01T10:40:15.590Z,14.5266
2023-05-01T10:41:16.588Z,14.5013
2023-05-01T10:42:17.634Z,14.1416
2023-05-01T10:43:18.653Z,13.9253
2023-05-01T10:44:19.717Z,13.7245
2023-05-01T10:45:20.752Z,13.7840
2023-05-01T10:46:21.914Z,13.8559
2023-05-01T10:47:22.808Z,13.8627
2023-05-01T10:48:23.805Z,13.9238
2023-05-01T10:49:24.878Z,13.9675
2023-05-01T10:50:25.952Z,14.2250
2023-05-01T10:51:28.271Z,14.2427
2023-05-01T10:52:27.969Z,14.1162
2023-05-01T10:53:28.986Z,14.2091
2023-05-01T10:54:29.991Z,14.0286
2023-05-01T10:55:31.185Z,13.9257
2023-05-01T10:56:32.164Z,13.9040
2023-05-01T10:57:33.149Z,14.0221
2023-05-01T10:58:34.162Z,14.0252
2023-05-01T10:59:35.275Z,14.0813
2023-05-01T11:00:36.277Z,14.1410
2023-05-01T11:01:37.389Z,14.2859
2023-05-01T11:02:38.336Z,14.2977
2023-05-01T11:03:39.360Z,14.2267
2023-05-01T11:04:40.336Z,14.2186
2023-05-01T11:05:41.582Z,14.1981
2023-05-01T11:06:42.642Z,14.1258
2023-05-01T11:07:43.478Z,14.0805
2023-05-01T11:08:45.544Z,14.1875
2023-05-01T11:09:45.506Z,14.0807
2023-05-01T11:10:46.616Z,14.1702
2023-05-01T11:11:47.674Z,14.2564
2023-05-01T11:12:48.679Z,14.0682
2023-05-01T11:13:49.675Z,13.8563
2023-05-01T11:14:50.697Z,13.8036
2023-05-01T11:15:51.844Z,13.6880
2023-05-01T11:16:52.865Z,13.5781
2023-05-01T11:17:53.911Z,13.5608
2023-05-01T11:18:54.855Z,13.6757
2023-05-01T11:19:55.886Z,13.8484
2023-05-01T11:20:56.944Z,14.0873
2023-05-01T11:21:57.973Z,14.1034
2023-05-01T11:22:59.026Z,13.9851
2023-05-01T11:24:00.023Z,13.8571
2023-05-01T11:25:01.056Z,13.6397
2023-05-01T11:26:02.092Z,13.6290
2023-05-01T11:27:03.187Z,13.3392
2023-05-01T11:28:04.178Z,13.1366
2023-05-01T11:29:05.270Z,13.0875
2023-05-01T11:30:06.226Z,13.1062
2023-05-01T11:31:07.364Z,13.0823
2023-05-01T11:32:08.483Z,13.0931
2023-05-01T11:33:10.964Z,13.1799
2023-05-01T11:34:10.361Z,13.2801
2023-05-01T11:35:11.411Z,13.2960
2023-05-01T11:36:12.457Z,13.4779
2023-05-01T11:37:13.504Z,13.7564
2023-05-01T11:38:14.465Z,13.7897
2023-05-01T11:39:15.557Z,13.7465
2023-05-01T11:40:16.571Z,13.6495
2023-05-01T11:41:19.254Z,13.7580
2023-05-01T11:42:18.721Z,13.7759
2023-05-01T11:43:19.755Z,13.7255
2023-05-01T11:44:20.694Z,13.8599
2023-05-01T11:45:21.772Z,13.9670
2023-05-01T11:46:22.846Z,14.0668
2023-05-01T11:47:23.898Z,14.0378
2023-05-01T11:48:24.843Z,13.9754
2023-05-01T11:49:25.876Z,13.8636
2023-05-01T11:50:26.895Z,13.9441
2023-05-01T11:51:28.048Z,14.0524
2023-05-01T11:52:29.026Z,14.1011
2023-05-01T11:53:30.049Z,14.1102
2023-05-01T11:54:31.039Z,14.0857
2023-05-01T11:55:32.080Z,13.8980
2023-05-01T11:56:33.162Z,13.8726
2023-05-01T11:57:34.188Z,13.9045
2023-05-01T11:58:35.227Z,13.8760
2023-05-01T11:59:36.190Z,13.9136
2023-05-01T12:00:37.216Z,13.9940
2023-05-01T12:01:38.296Z,14.1276
2023-05-01T12:02:39.428Z,14.1860
2023-05-01T12:03:40.420Z,14.1276
2023-05-01T12:04:41.384Z,14.0137
2023-05-01T12:05:42.419Z,13.8426
2023-05-01T12:06:43.541Z,13.8413
2023-05-01T12:07:44.510Z,13.9223
2023-05-01T12:08:45.513Z,14.0059
2023-05-01T12:09:46.568Z,13.7823
2023-05-01T12:10:47.563Z,13.7520
2023-05-01T12:11:50.537Z,13.8598
2023-05-01T12:12:49.724Z,13.8621
2023-05-01T12:13:50.637Z,13.8865
2023-05-01T12:14:51.669Z,13.8558
2023-05-01T12:15:52.755Z,13.9737
2023-05-01T12:16:53.871Z,13.9588
2023-05-01T12:17:54.856Z,13.9028